Time;durP1;ratioP1;P1;durP2;ratioP2;P2;SDS_P1;SDS_P2;PMS_P1;PMS_P2;Temp;Humidity;BMP_temperature;BMP_pressure;BME280_temperature;BME280_humidity;BME280_pressure;Samples;Min_cycle;Max_cycle;Signal;HPM_P1;HPM_P2
2022/06/23 00:00:42;;;;;;;;;21.67;20.00;;;;;23.46;51.67;100665.13;110084;1267;18433;-47
2022/06/23 00:03:09;;;;;;;;;20.33;20.00;;;;;23.45;51.81;100661.80;110036;1268;19871;-48
2022/06/23 00:05:37;;;;;;;;;24.00;20.00;;;;;23.44;51.91;100665.75;110114;1267;18886;-49
2022/06/23 00:08:04;;;;;;;;;21.00;21.00;;;;;23.45;51.78;100665.83;110150;1268;21023;-47
2022/06/23 00:10:31;;;;;;;;;23.00;20.00;;;;;23.42;51.96;100662.11;110023;1267;22107;-49
2022/06/23 00:12:59;;;;;;;;;27.00;22.00;;;;;23.42;51.99;100663.23;109982;1267;22496;-48
2022/06/23 00:15:27;;;;;;;;;21.33;20.00;;;;;23.41;52.10;100657.13;110032;1268;18402;-47
2022/06/23 00:17:54;;;;;;;;;22.00;21.00;;;;;23.44;52.01;100660.07;110016;1267;18670;-47
2022/06/23 00:20:21;;;;;;;;;20.00;17.50;;;;;23.43;51.97;100664.73;110151;1267;18879;-50
2022/06/23 00:22:48;;;;;;;;;23.67;21.00;;;;;23.45;51.97;100662.35;110078;1267;18407;-51
2022/06/23 00:25:15;;;;;;;;;19.33;19.33;;;;;23.44;52.07;100664.31;110030;1267;21991;-49
2022/06/23 00:27:44;;;;;;;;;20.67;20.33;;;;;23.45;52.13;100667.69;110098;1267;22402;-48
2022/06/23 00:30:11;;;;;;;;;24.33;23.00;;;;;23.45;52.13;100666.34;110134;1267;18250;-48
2022/06/23 00:32:39;;;;;;;;;21.00;20.33;;;;;23.46;52.07;100670.34;110123;1267;22820;-48
2022/06/23 00:35:06;;;;;;;;;19.00;17.00;;;;;23.45;52.16;100673.04;110151;1268;19031;-53
2022/06/23 00:37:33;;;;;;;;;20.00;19.33;;;;;23.43;52.10;100675.16;110102;1267;18345;-51
2022/06/23 00:40:00;;;;;;;;;21.00;20.00;;;;;23.41;52.16;100676.73;110055;1268;22095;-50
2022/06/23 00:42:28;;;;;;;;;24.00;21.00;;;;;23.39;52.21;100679.30;110114;1268;19784;-48
2022/06/23 00:44:55;;;;;;;;;22.00;20.67;;;;;23.35;52.15;100680.64;110014;1267;18283;-51
2022/06/23 00:47:22;;;;;;;;;32.67;29.67;;;;;23.33;52.20;100681.64;110163;1268;19388;-47
2022/06/23 00:49:49;;;;;;;;;24.67;23.33;;;;;23.33;52.05;100681.63;110077;1267;18873;-50
2022/06/23 00:52:17;;;;;;;;;29.00;25.33;;;;;23.33;52.19;100686.55;110057;1267;18559;-48
2022/06/23 00:54:44;;;;;;;;;31.00;26.00;;;;;23.31;52.27;100680.80;110036;1267;22045;-47
2022/06/23 00:57:13;;;;;;;;;27.33;24.67;;;;;23.31;52.33;100684.60;110073;1268;19001;-47
2022/06/23 00:59:40;;;;;;;;;24.00;23.00;;;;;23.30;52.37;100683.23;110130;1268;18299;-47
2022/06/23 01:02:07;;;;;;;;;28.00;26.00;;;;;23.31;52.48;100683.09;110136;1267;18562;-47
2022/06/23 01:04:34;;;;;;;;;28.00;24.00;;;;;23.30;52.50;100685.09;110032;1268;20572;-48
2022/06/23 01:07:02;;;;;;;;;25.00;21.00;;;;;23.30;52.56;100685.42;110029;1267;20002;-51
2022/06/23 01:09:29;;;;;;;;;26.50;22.50;;;;;23.30;52.63;100682.86;110096;1267;19297;-50
2022/06/23 01:11:56;;;;;;;;;24.00;22.00;;;;;23.28;52.77;100683.68;110087;1268;18851;-47
2022/06/23 01:14:24;;;;;;;;;28.00;24.33;;;;;23.28;52.79;100683.52;110125;1268;22020;-52
2022/06/23 01:16:51;;;;;;;;;19.67;19.67;;;;;23.25;52.93;100679.86;110131;1267;18795;-48
2022/06/23 01:19:18;;;;;;;;;25.00;24.00;;;;;23.23;52.96;100684.39;110063;1267;18767;-47
2022/06/23 01:21:45;;;;;;;;;20.00;19.67;;;;;23.20;53.10;100685.21;110009;1268;18665;-48
2022/06/23 01:24:12;;;;;;;;;24.33;23.33;;;;;23.21;53.05;100682.19;110109;1267;18752;-48
2022/06/23 01:26:40;;;;;;;;;26.00;23.67;;;;;23.18;53.16;100685.98;110050;1267;18743;-48
2022/06/23 01:29:07;;;;;;;;;27.00;24.00;;;;;23.21;52.90;100682.52;110150;1268;18357;-48
2022/06/23 01:31:34;;;;;;;;;19.00;19.00;;;;;23.24;52.87;100679.81;110020;1267;19016;-47
2022/06/23 01:34:03;;;;;;;;;24.33;21.33;;;;;23.19;53.13;100685.54;110004;1267;18779;-47
2022/06/23 01:36:30;;;;;;;;;22.00;21.00;;;;;23.21;52.98;100686.98;110034;1267;18254;-47
2022/06/23 01:38:57;;;;;;;;;26.33;23.00;;;;;23.23;53.04;100693.14;110071;1267;19014;-47
2022/06/23 01:41:25;;;;;;;;;24.00;20.67;;;;;23.21;52.95;100693.71;110118;1267;21042;-50
2022/06/23 01:43:58;;;;;;;;;23.00;20.00;;;;;23.23;52.84;100693.68;110103;1267;18349;-48
2022/06/23 01:46:26;;;;;;;;;26.67;24.00;;;;;23.19;53.15;100696.15;110130;1267;19263;-47
2022/06/23 01:48:53;;;;;;;;;22.33;20.67;;;;;23.15;53.00;100695.33;110111;1267;19141;-51
2022/06/23 01:51:20;;;;;;;;;19.00;19.00;;;;;23.14;53.15;100693.43;110128;1268;18261;-49
2022/06/23 01:53:48;;;;;;;;;21.00;20.67;;;;;23.13;53.14;100692.70;110134;1267;19066;-48
2022/06/23 01:56:15;;;;;;;;;18.50;18.50;;;;;23.15;53.13;100690.79;110204;1265;20915;-48
2022/06/23 01:58:43;;;;;;;;;23.00;22.33;;;;;23.14;53.07;100689.82;110169;1265;18380;-48
2022/06/23 02:01:10;;;;;;;;;22.00;20.33;;;;;23.13;53.14;100692.80;110172;1265;18763;-47
2022/06/23 02:03:38;;;;;;;;;23.33;20.33;;;;;23.09;53.20;100690.30;110148;1265;18889;-48
2022/06/23 02:06:05;;;;;;;;;25.33;23.33;;;;;23.09;53.24;100692.23;110245;1265;18380;-48
2022/06/23 02:08:32;;;;;;;;;20.00;20.00;;;;;23.08;53.19;100691.64;110244;1265;22093;-48
2022/06/23 02:11:00;;;;;;;;;20.00;19.50;;;;;23.08;53.16;100694.38;110184;1264;19762;-47
2022/06/23 02:13:27;;;;;;;;;24.00;20.50;;;;;23.06;53.27;100694.13;110168;1265;18288;-49
2022/06/23 02:15:54;;;;;;;;;24.00;22.67;;;;;23.04;53.31;100695.67;110165;1265;18737;-50
2022/06/23 02:18:21;;;;;;;;;24.50;20.00;;;;;23.04;53.22;100695.11;110165;1265;18837;-49
2022/06/23 02:20:50;;;;;;;;;23.50;20.50;;;;;23.02;53.35;100696.85;110128;1265;18365;-46
2022/06/23 02:23:17;;;;;;;;;24.50;23.00;;;;;22.98;53.39;100693.86;110230;1265;18928;-48
2022/06/23 02:25:45;;;;;;;;;25.00;22.00;;;;;22.97;53.24;100695.09;110204;1265;22173;-48
2022/06/23 02:28:12;;;;;;;;;23.00;22.00;;;;;23.03;53.21;100697.41;110172;1264;22764;-49
2022/06/23 02:30:39;;;;;;;;;23.67;23.67;;;;;23.07;52.99;100698.73;110164;1265;21909;-48
2022/06/23 02:33:07;;;;;;;;;24.67;22.67;;;;;23.08;52.96;100698.59;110138;1265;21974;-48
2022/06/23 02:35:34;;;;;;;;;22.00;22.00;;;;;23.09;52.82;100702.29;110176;1265;23103;-49
2022/06/23 02:38:01;;;;;;;;;22.33;20.67;;;;;23.15;52.55;100704.76;110189;1265;22814;-49
2022/06/23 02:40:29;;;;;;;;;21.33;21.00;;;;;23.20;52.55;100708.27;110151;1265;18729;-50
2022/06/23 02:42:56;;;;;;;;;22.50;21.50;;;;;23.21;52.36;100710.08;110136;1267;22117;-49
2022/06/23 02:45:23;;;;;;;;;23.00;23.00;;;;;23.19;52.26;100714.18;110131;1266;18809;-49
2022/06/23 02:47:50;;;;;;;;;20.50;19.50;;;;;23.16;52.10;100714.30;110127;1266;22132;-49
2022/06/23 02:50:18;;;;;;;;;22.67;21.33;;;;;23.14;52.13;100719.38;110192;1267;19442;-54
2022/06/23 02:52:45;;;;;;;;;22.67;22.00;;;;;23.10;52.21;100721.35;110180;1267;18791;-49
2022/06/23 02:55:12;;;;;;;;;23.33;20.00;;;;;23.07;52.08;100723.64;110133;1266;19681;-48
2022/06/23 02:57:39;;;;;;;;;19.67;19.00;;;;;23.06;52.16;100724.56;110131;1268;18355;-48
2022/06/23 03:00:07;;;;;;;;;26.67;21.00;;;;;23.05;52.02;100728.82;110123;1268;18852;-49
2022/06/23 03:02:34;;;;;;;;;22.67;20.00;;;;;23.06;52.02;100730.05;110188;1268;18733;-52
2022/06/23 03:05:01;;;;;;;;;20.00;20.00;;;;;23.07;51.96;100736.42;110189;1268;18516;-48
2022/06/23 03:07:28;;;;;;;;;20.67;20.67;;;;;23.03;52.07;100736.53;110149;1267;18743;-48
2022/06/23 03:09:57;;;;;;;;;23.00;21.00;;;;;23.04;52.03;100737.02;110130;1268;19151;-50
2022/06/23 03:12:24;;;;;;;;;20.33;20.33;;;;;23.02;52.01;100740.18;110137;1267;18218;-50
2022/06/23 03:14:51;;;;;;;;;25.67;24.33;;;;;22.98;52.15;100739.96;110175;1267;18752;-54
2022/06/23 03:17:19;;;;;;;;;21.67;20.33;;;;;23.02;52.05;100743.64;110141;1268;18829;-48
2022/06/23 03:19:46;;;;;;;;;27.67;23.33;;;;;22.98;51.93;100741.56;110119;1266;19230;-47
2022/06/23 03:22:13;;;;;;;;;22.50;20.50;;;;;23.00;51.98;100744.27;110153;1268;18822;-47
2022/06/23 03:24:40;;;;;;;;;26.00;24.00;;;;;23.03;51.98;100746.88;110147;1266;19421;-50
2022/06/23 03:27:08;;;;;;;;;22.67;22.00;;;;;23.03;51.91;100751.00;110189;1267;18347;-50
2022/06/23 03:29:35;;;;;;;;;27.00;23.67;;;;;23.02;51.81;100751.87;110141;1268;19520;-46
2022/06/23 03:32:02;;;;;;;;;26.00;23.33;;;;;23.03;51.77;100754.25;110169;1267;18723;-49
2022/06/23 03:34:29;;;;;;;;;23.67;21.00;;;;;23.09;51.68;100758.59;110092;1267;21987;-50
2022/06/23 03:36:57;;;;;;;;;23.00;20.00;;;;;23.12;51.66;100762.23;110170;1268;18859;-49
2022/06/23 03:42:09;;;;;;;;;24.33;22.33;;;;;23.09;51.71;100761.67;110153;1267;19044;-48
2022/06/23 03:44:36;;;;;;;;;26.00;23.67;;;;;23.04;51.83;100765.40;110178;1266;18847;-48
2022/06/23 03:47:04;;;;;;;;;22.33;22.00;;;;;23.05;51.75;100769.57;110171;1268;18834;-48
2022/06/23 03:49:31;;;;;;;;;26.33;24.00;;;;;23.10;51.64;100775.68;110116;1268;18323;-48
2022/06/23 03:51:58;;;;;;;;;23.00;22.50;;;;;23.08;51.70;100775.30;110116;1267;18906;-48
2022/06/23 03:54:26;;;;;;;;;22.67;21.67;;;;;23.07;51.73;100778.23;110138;1267;22128;-48
2022/06/23 03:56:53;;;;;;;;;20.00;19.67;;;;;23.07;51.67;100781.50;110128;1268;18394;-48
2022/06/23 03:59:21;;;;;;;;;22.00;21.00;;;;;23.08;51.65;100780.60;110202;1267;18925;-48
2022/06/23 04:01:48;;;;;;;;;24.33;22.00;;;;;23.02;51.93;100783.34;110251;1264;18802;-48
2022/06/23 04:04:16;;;;;;;;;23.33;22.33;;;;;23.05;51.85;100782.15;110287;1263;19228;-48
2022/06/23 04:06:43;;;;;;;;;24.00;22.50;;;;;23.06;51.79;100784.98;110300;1265;19056;-49
2022/06/23 04:09:10;;;;;;;;;22.33;22.00;;;;;23.04;51.70;100789.12;110270;1265;18831;-48
2022/06/23 04:11:47;;;;;;;;;27.00;22.33;;;;;23.00;51.87;100793.10;110269;1264;18606;-48
2022/06/23 04:14:14;;;;;;;;;24.33;23.33;;;;;22.99;51.83;100796.66;110322;1265;22060;-48
2022/06/23 04:16:41;;;;;;;;;23.00;23.00;;;;;23.01;51.82;100798.11;110248;1265;22048;-48
2022/06/23 04:19:08;;;;;;;;;22.33;22.00;;;;;23.06;51.60;100797.81;110305;1265;18219;-49
2022/06/23 04:21:36;;;;;;;;;27.00;24.00;;;;;23.10;51.62;100799.45;110248;1264;19036;-48
2022/06/23 04:24:03;;;;;;;;;24.33;23.67;;;;;23.09;51.51;100801.42;110292;1264;22078;-50
2022/06/23 04:26:30;;;;;;;;;23.00;21.33;;;;;23.07;51.49;100800.80;110266;1264;18315;-48
2022/06/23 04:28:58;;;;;;;;;21.67;20.33;;;;;23.12;51.45;100804.70;110301;1265;18833;-48
2022/06/23 04:31:25;;;;;;;;;23.00;22.67;;;;;23.15;51.35;100806.00;110293;1265;21631;-48
2022/06/23 04:33:52;;;;;;;;;22.50;22.00;;;;;23.16;51.39;100806.80;110230;1264;18211;-54
2022/06/23 04:36:20;;;;;;;;;23.00;22.00;;;;;23.11;51.48;100807.38;110263;1263;18962;-50
2022/06/23 04:38:47;;;;;;;;;24.00;22.50;;;;;23.13;51.44;100806.02;110259;1265;20222;-48
2022/06/23 04:41:14;;;;;;;;;24.50;22.00;;;;;23.14;51.47;100808.36;110326;1265;18209;-49
2022/06/23 04:43:41;;;;;;;;;22.33;21.00;;;;;23.13;51.50;100810.27;110265;1265;18709;-48
2022/06/23 04:46:09;;;;;;;;;23.00;21.50;;;;;23.10;51.44;100813.58;110272;1265;18832;-49
2022/06/23 04:48:36;;;;;;;;;25.00;21.00;;;;;23.11;51.44;100813.63;110280;1264;18329;-49
2022/06/23 04:51:03;;;;;;;;;23.33;22.00;;;;;23.08;51.56;100815.46;110262;1264;19337;-49
2022/06/23 04:53:30;;;;;;;;;25.67;23.33;;;;;23.09;51.56;100820.60;110291;1265;18850;-50
2022/06/23 04:55:58;;;;;;;;;22.00;22.00;;;;;23.08;51.56;100817.48;110278;1264;18399;-49
2022/06/23 04:58:25;;;;;;;;;20.67;20.00;;;;;23.07;51.53;100821.41;110258;1265;21881;-49
2022/06/23 05:00:52;;;;;;;;;24.67;20.00;;;;;23.06;51.53;100823.67;110242;1264;18822;-49
2022/06/23 05:03:19;;;;;;;;;23.33;22.67;;;;;23.12;51.46;100818.23;110250;1264;18622;-49
2022/06/23 05:05:46;;;;;;;;;20.33;19.00;;;;;23.19;51.16;100816.10;110236;1264;18853;-47
2022/06/23 05:08:14;;;;;;;;;24.00;23.50;;;;;23.19;51.29;100818.61;110299;1264;18745;-46
2022/06/23 05:10:41;;;;;;;;;20.00;19.00;;;;;23.13;51.43;100818.80;110274;1264;18378;-50
2022/06/23 05:13:08;;;;;;;;;20.50;20.50;;;;;23.12;51.49;100821.06;110260;1265;18703;-47
2022/06/23 05:15:36;;;;;;;;;23.33;22.67;;;;;23.11;51.43;100821.21;110265;1265;18788;-50
2022/06/23 05:18:03;;;;;;;;;22.67;22.33;;;;;23.13;51.49;100821.88;110287;1265;22460;-50
2022/06/23 05:20:31;;;;;;;;;24.00;20.00;;;;;23.12;51.60;100823.34;110266;1265;18799;-46
2022/06/23 05:22:58;;;;;;;;;19.50;19.00;;;;;23.13;51.71;100827.94;110339;1265;18670;-50
2022/06/23 05:25:25;;;;;;;;;23.33;19.67;;;;;23.18;51.65;100832.93;110232;1264;21990;-49
2022/06/23 05:27:52;;;;;;;;;21.00;20.00;;;;;23.23;51.45;100834.70;110233;1263;19080;-50
2022/06/23 05:30:20;;;;;;;;;24.67;23.00;;;;;23.23;51.48;100830.88;110263;1264;18874;-50
2022/06/23 05:32:47;;;;;;;;;25.67;22.67;;;;;23.26;51.51;100831.45;110280;1264;18336;-48
2022/06/23 05:35:14;;;;;;;;;24.00;20.33;;;;;23.33;51.47;100831.77;110294;1264;19899;-48
2022/06/23 05:37:41;;;;;;;;;20.33;20.00;;;;;23.31;51.50;100832.63;110241;1264;18868;-48
2022/06/23 05:40:09;;;;;;;;;21.00;20.00;;;;;23.31;51.45;100834.09;110269;1264;18206;-48
2022/06/23 05:42:36;;;;;;;;;23.00;21.00;;;;;23.33;51.56;100838.74;110286;1265;18681;-48
2022/06/23 05:45:03;;;;;;;;;19.33;18.33;;;;;23.39;51.29;100840.34;110217;1264;18972;-48
2022/06/23 05:47:30;;;;;;;;;23.00;22.00;;;;;23.38;51.45;100846.52;110214;1264;18286;-50
2022/06/23 05:49:58;;;;;;;;;19.33;18.33;;;;;23.34;51.38;100850.11;110268;1264;18902;-51
2022/06/23 05:52:25;;;;;;;;;23.00;23.00;;;;;23.25;51.67;100856.88;110275;1264;23646;-50
2022/06/23 05:54:53;;;;;;;;;20.33;20.00;;;;;23.19;51.93;100857.12;110270;1264;18538;-50
2022/06/23 05:57:20;;;;;;;;;22.00;20.00;;;;;23.07;52.06;100863.81;110218;1265;18792;-51
2022/06/23 05:59:48;;;;;;;;;22.33;20.00;;;;;23.00;51.98;100858.40;110275;1264;22048;-50
2022/06/23 06:02:15;;;;;;;;;19.33;18.00;;;;;23.01;52.04;100864.60;110259;1264;22186;-53
2022/06/23 06:04:43;;;;;;;;;23.33;22.00;;;;;23.05;52.04;100862.35;110271;1264;18860;-52
2022/06/23 06:07:10;;;;;;;;;22.00;20.00;;;;;23.21;51.81;100857.70;110255;1264;18957;-51
2022/06/23 06:09:40;;;;;;;;;19.00;19.00;;;;;23.29;51.78;100858.63;110288;1265;18271;-51
2022/06/23 06:12:07;;;;;;;;;22.00;19.00;;;;;23.24;51.63;100860.09;110313;1265;18861;-52
2022/06/23 06:14:35;;;;;;;;;17.33;15.67;;;;;23.16;51.51;100860.61;110256;1264;18717;-51
2022/06/23 06:17:02;;;;;;;;;18.67;16.67;;;;;23.15;51.55;100857.56;110262;1264;21023;-55
2022/06/23 06:19:29;;;;;;;;;18.00;18.00;;;;;23.26;51.57;100859.35;110264;1265;20438;-49
2022/06/23 06:21:56;;;;;;;;;18.33;17.67;;;;;23.44;51.31;100858.33;110248;1264;19017;-52
2022/06/23 06:24:23;;;;;;;;;18.00;18.00;;;;;23.69;51.00;100864.28;110248;1264;22184;-52
2022/06/23 06:26:51;;;;;;;;;19.00;18.00;;;;;23.73;50.75;100860.33;110196;1264;18667;-52
2022/06/23 06:29:18;;;;;;;;;19.33;18.67;;;;;23.60;50.66;100863.06;110317;1265;18699;-52
2022/06/23 06:31:45;;;;;;;;;19.00;18.00;;;;;23.54;50.69;100866.70;110299;1265;19340;-53
2022/06/23 06:34:13;;;;;;;;;18.67;18.00;;;;;23.48;50.79;100867.33;110288;1265;18742;-50
2022/06/23 06:36:40;;;;;;;;;17.33;15.33;;;;;23.57;50.38;100864.52;110282;1264;18788;-53
2022/06/23 06:39:07;;;;;;;;;18.00;18.00;;;;;23.64;50.03;100868.05;110253;1264;18178;-51
2022/06/23 06:41:34;;;;;;;;;13.50;12.00;;;;;23.63;49.88;100867.02;110159;1265;21276;-54
2022/06/23 06:44:02;;;;;;;;;16.00;15.00;;;;;23.78;49.54;100865.95;110272;1264;18732;-51
2022/06/23 06:46:29;;;;;;;;;16.67;15.00;;;;;23.93;49.26;100866.02;110216;1265;18275;-53
2022/06/23 06:48:56;;;;;;;;;16.00;14.00;;;;;23.98;49.14;100869.60;110235;1264;19102;-52
2022/06/23 06:51:24;;;;;;;;;16.00;14.67;;;;;24.05;48.75;100873.98;110252;1265;19456;-51
2022/06/23 06:53:51;;;;;;;;;14.67;14.00;;;;;24.18;48.76;100873.42;110278;1264;18459;-51
2022/06/23 06:56:18;;;;;;;;;16.33;15.00;;;;;24.21;48.59;100876.48;110303;1264;18694;-52
2022/06/23 06:58:45;;;;;;;;;14.00;14.00;;;;;24.25;48.14;100879.65;110287;1264;20959;-51
2022/06/23 07:01:13;;;;;;;;;12.00;12.00;;;;;24.25;48.06;100878.38;110262;1264;22053;-53
2022/06/23 07:03:41;;;;;;;;;13.33;13.33;;;;;24.32;48.17;100879.20;110076;1264;232111;-50
2022/06/23 07:06:08;;;;;;;;;16.00;16.00;;;;;24.38;48.16;100877.89;110232;1264;20227;-51
2022/06/23 07:08:35;;;;;;;;;15.67;15.00;;;;;24.41;48.51;100882.38;110258;1265;18307;-52
2022/06/23 07:11:02;;;;;;;;;16.00;15.33;;;;;24.42;48.39;100884.02;110290;1264;24105;-50
2022/06/23 07:13:30;;;;;;;;;15.00;15.00;;;;;24.43;48.19;100882.11;110204;1264;18933;-55
2022/06/23 07:15:57;;;;;;;;;13.33;13.00;;;;;24.30;47.19;100884.08;109842;1264;18365;-51
2022/06/23 07:18:24;;;;;;;;;15.00;14.00;;;;;24.26;46.79;100880.92;110135;1264;19277;-48
2022/06/23 07:20:52;;;;;;;;;13.50;13.50;;;;;24.55;45.95;100869.73;110216;1265;19095;-52
2022/06/23 07:23:19;;;;;;;;;16.67;15.33;;;;;24.66;45.91;100868.84;110302;1264;18183;-52
2022/06/23 07:25:46;;;;;;;;;16.00;14.33;;;;;24.92;45.46;100869.69;110199;1264;21039;-52
2022/06/23 07:28:13;;;;;;;;;14.00;14.00;;;;;24.97;45.73;100870.86;110196;1265;18765;-52
2022/06/23 07:30:41;;;;;;;;;18.00;18.00;;;;;24.93;46.33;100869.52;110266;1265;18412;-51
2022/06/23 07:33:08;;;;;;;;;16.00;16.00;;;;;25.04;46.40;100873.29;110228;1264;18865;-52
2022/06/23 07:35:36;;;;;;;;;16.67;16.33;;;;;25.09;46.12;100875.88;110244;1264;18981;-52
2022/06/23 07:38:03;;;;;;;;;15.00;14.33;;;;;25.24;45.38;100874.04;110281;1264;18496;-53
2022/06/23 07:40:30;;;;;;;;;14.50;14.50;;;;;25.00;44.82;100877.00;110227;1265;18807;-54
2022/06/23 07:42:57;;;;;;;;;16.00;14.00;;;;;25.17;44.73;100883.20;110241;1264;22125;-51
2022/06/23 07:45:25;;;;;;;;;15.00;13.33;;;;;25.29;44.82;100885.45;110249;1264;18263;-50
2022/06/23 07:47:52;;;;;;;;;15.67;13.00;;;;;24.79;44.34;100890.87;110210;1264;18792;-52
2022/06/23 07:50:20;;;;;;;;;14.33;13.67;;;;;24.67;44.40;100894.80;110288;1264;18772;-52
2022/06/23 07:52:47;;;;;;;;;18.67;17.33;;;;;25.03;44.46;100898.46;110281;1264;19924;-52
2022/06/23 07:55:14;;;;;;;;;14.33;14.33;;;;;25.41;44.46;100894.98;110218;1264;18832;-47
2022/06/23 07:57:42;;;;;;;;;12.33;11.67;;;;;25.63;44.50;100886.10;110243;1264;18959;-51
2022/06/23 08:00:09;;;;;;;;;13.33;13.33;;;;;25.78;44.37;100883.24;110281;1264;20781;-55
2022/06/23 08:02:36;;;;;;;;;16.50;14.00;;;;;25.83;44.10;100887.14;110252;1264;18686;-51
2022/06/23 08:05:05;;;;;;;;;14.00;13.00;;;;;25.50;43.53;100897.33;110276;1264;18925;-52
2022/06/23 08:07:32;;;;;;;;;15.00;14.33;;;;;24.94;42.92;100900.30;110224;1264;22747;-54
2022/06/23 08:09:59;;;;;;;;;12.00;12.00;;;;;24.91;43.06;100899.42;110270;1264;18706;-49
2022/06/23 08:18:02;;;;;;;;;16.00;15.33;;;;;25.43;43.15;100898.19;110251;1264;18844;-51
2022/06/23 08:20:30;;;;;;;;;16.33;15.33;;;;;25.57;43.86;100900.70;110272;1264;18736;-51
2022/06/23 08:22:57;;;;;;;;;15.00;15.00;;;;;25.67;43.68;100901.02;110181;1264;21222;-49
2022/06/23 08:25:24;;;;;;;;;14.00;13.50;;;;;25.79;43.63;100896.33;110163;1264;18739;-49
2022/06/23 08:27:53;;;;;;;;;20.50;18.50;;;;;25.85;43.19;100898.84;110015;1264;18781;-50
2022/06/23 08:30:20;;;;;;;;;77.33;55.67;;;;;25.73;43.83;100898.28;110119;1264;18231;-53
2022/06/23 08:32:48;;;;;;;;;79.67;57.00;;;;;25.52;44.52;100895.86;110195;1265;19029;-50
2022/06/23 08:35:15;;;;;;;;;70.00;51.67;;;;;25.36;44.70;100887.98;110214;1264;18840;-52
2022/06/23 08:37:42;;;;;;;;;59.00;44.50;;;;;25.25;45.05;100889.61;110201;1265;19545;-49
2022/06/23 08:40:10;;;;;;;;;56.00;43.67;;;;;25.16;45.44;100892.14;110221;1264;19002;-50
2022/06/23 08:42:37;;;;;;;;;59.67;42.33;;;;;25.10;45.67;100900.01;110189;1264;19021;-49
2022/06/23 08:45:04;;;;;;;;;55.67;41.00;;;;;25.06;45.88;100899.62;110193;1265;18346;-55
2022/06/23 08:47:32;;;;;;;;;32.33;29.33;;;;;25.06;45.74;100895.48;110227;1264;18778;-51
2022/06/23 08:49:59;;;;;;;;;29.33;25.33;;;;;25.52;44.41;100893.16;110246;1265;19054;-49
2022/06/23 08:52:26;;;;;;;;;27.50;25.50;;;;;25.76;43.72;100896.77;110248;1264;22124;-51
2022/06/23 08:54:54;;;;;;;;;22.00;18.00;;;;;25.88;43.41;100892.17;110217;1265;19155;-53
2022/06/23 08:57:21;;;;;;;;;19.67;19.00;;;;;25.94;43.33;100886.86;110272;1264;18837;-52
2022/06/23 08:59:48;;;;;;;;;16.67;16.00;;;;;26.18;42.47;100889.56;110263;1265;18359;-52
2022/06/23 09:02:16;;;;;;;;;17.00;14.00;;;;;26.17;42.24;100892.44;110294;1264;18784;-51
2022/06/23 09:04:43;;;;;;;;;15.33;13.67;;;;;26.39;41.67;100892.95;110203;1264;18725;-51
2022/06/23 09:07:11;;;;;;;;;13.50;13.00;;;;;26.52;40.46;100894.19;110241;1265;18347;-51
2022/06/23 09:09:38;;;;;;;;;13.00;13.00;;;;;26.41;40.44;100897.08;110198;1265;18896;-50
2022/06/23 09:12:05;;;;;;;;;14.00;14.00;;;;;26.31;40.67;100898.63;110246;1265;18721;-51
2022/06/23 09:14:33;;;;;;;;;12.33;12.33;;;;;26.41;40.70;100899.33;110171;1264;18212;-52
2022/06/23 09:17:01;;;;;;;;;15.67;14.00;;;;;26.49;40.07;100902.42;110274;1265;18800;-52
2022/06/23 09:19:28;;;;;;;;;14.33;14.00;;;;;26.20;40.84;100895.32;110040;1264;21132;-50
2022/06/23 09:21:55;;;;;;;;;13.67;13.33;;;;;25.90;41.56;100897.13;110218;1265;18195;-49
2022/06/23 09:24:22;;;;;;;;;13.00;13.00;;;;;25.88;41.58;100897.49;110132;1264;19123;-50
2022/06/23 09:26:50;;;;;;;;;13.00;13.00;;;;;25.91;40.64;100900.08;110196;1265;18847;-51
2022/06/23 09:29:17;;;;;;;;;11.33;11.00;;;;;25.81;39.96;100907.15;110265;1264;18249;-50
2022/06/23 09:31:44;;;;;;;;;13.00;13.00;;;;;25.64;40.86;100916.69;110217;1265;18842;-51
2022/06/23 09:34:12;;;;;;;;;12.00;12.00;;;;;25.45;41.55;100911.88;110233;1264;22059;-52
2022/06/23 09:36:40;;;;;;;;;13.50;13.00;;;;;25.31;42.30;100909.52;110289;1263;18302;-51
2022/06/23 09:39:07;;;;;;;;;46.00;40.00;;;;;25.48;42.23;100903.11;110253;1264;20157;-51
2022/06/23 09:41:34;;;;;;;;;22.33;19.67;;;;;25.83;41.00;100894.94;110281;1265;19368;-56
2022/06/23 09:44:01;;;;;;;;;18.00;16.50;;;;;25.92;40.57;100891.71;110234;1264;18258;-58
2022/06/23 09:46:29;;;;;;;;;19.00;18.50;;;;;25.96;40.89;100889.70;110246;1264;18966;-52
2022/06/23 09:48:56;;;;;;;;;17.50;17.50;;;;;25.78;41.27;100898.45;110243;1265;18731;-50
2022/06/23 09:51:23;;;;;;;;;18.67;18.00;;;;;25.59;41.69;100898.77;110260;1264;19312;-51
2022/06/23 09:53:51;;;;;;;;;18.00;18.00;;;;;25.45;42.29;100900.22;110221;1264;22102;-46
2022/06/23 09:56:18;;;;;;;;;18.33;17.00;;;;;25.44;42.74;100902.62;110287;1263;18768;-51
2022/06/23 09:58:45;;;;;;;;;16.33;16.00;;;;;25.48;42.93;100902.55;110245;1263;19659;-52
2022/06/23 10:01:13;;;;;;;;;17.00;16.00;;;;;25.48;42.89;100903.56;110227;1264;19366;-52
2022/06/23 10:03:40;;;;;;;;;16.33;16.00;;;;;25.50;42.99;100898.05;110263;1264;18841;-51
2022/06/23 10:06:07;;;;;;;;;16.00;16.00;;;;;25.53;42.97;100902.33;110248;1265;21679;-50
2022/06/23 10:08:34;;;;;;;;;17.67;16.00;;;;;25.49;43.11;100905.89;110246;1265;18795;-55
2022/06/23 10:11:02;;;;;;;;;16.33;14.00;;;;;25.68;42.76;100905.70;110269;1264;19003;-51
2022/06/23 10:13:29;;;;;;;;;15.00;14.33;;;;;25.95;42.27;100908.45;110278;1264;18331;-51
2022/06/23 10:15:56;;;;;;;;;17.00;15.00;;;;;25.87;42.24;100903.70;110260;1265;18776;-51
2022/06/23 10:18:24;;;;;;;;;14.00;13.33;;;;;25.75;42.63;100903.28;110207;1264;18894;-51
2022/06/23 10:20:51;;;;;;;;;16.00;14.00;;;;;25.93;42.53;100904.32;110271;1264;18457;-51
2022/06/23 10:23:18;;;;;;;;;14.00;13.00;;;;;25.94;42.27;100904.61;110303;1264;18708;-51
2022/06/23 10:25:46;;;;;;;;;19.00;19.00;;;;;25.74;42.58;100908.55;110169;1264;19007;-51
2022/06/23 10:28:14;;;;;;;;;17.33;15.33;;;;;25.66;42.94;100902.30;110227;1265;18319;-48
2022/06/23 10:30:41;;;;;;;;;17.00;15.00;;;;;25.87;42.05;100906.61;110252;1264;18683;-52
2022/06/23 10:33:08;;;;;;;;;15.00;14.00;;;;;25.82;41.26;100900.48;110247;1265;18706;-51
2022/06/23 10:35:36;;;;;;;;;14.00;13.00;;;;;25.52;41.53;100894.86;110281;1264;18283;-54
2022/06/23 10:38:03;;;;;;;;;17.50;16.50;;;;;25.47;41.78;100894.96;110213;1264;20277;-50
2022/06/23 10:40:30;;;;;;;;;17.00;16.00;;;;;25.46;41.93;100895.84;110158;1265;18677;-51
2022/06/23 10:42:57;;;;;;;;;14.67;14.67;;;;;25.53;41.83;100902.41;110236;1264;18382;-51
2022/06/23 10:45:25;;;;;;;;;17.33;16.67;;;;;25.58;41.99;100901.54;110120;1264;18702;-53
2022/06/23 10:47:53;;;;;;;;;14.67;14.00;;;;;25.54;42.22;100903.85;109997;1264;19343;-50
2022/06/23 10:50:20;;;;;;;;;16.00;14.00;;;;;25.58;42.41;100903.31;110206;1264;19205;-52
2022/06/23 10:52:47;;;;;;;;;12.67;12.67;;;;;25.61;42.11;100902.83;110125;1264;20275;-51
2022/06/23 10:55:14;;;;;;;;;14.00;14.00;;;;;25.73;41.99;100901.37;110228;1264;22030;-51
2022/06/23 10:57:41;;;;;;;;;14.33;14.00;;;;;25.91;41.86;100904.52;110137;1265;18386;-54
2022/06/23 11:00:09;;;;;;;;;18.00;17.00;;;;;25.80;41.60;100910.09;110120;1264;22259;-54
2022/06/23 11:02:38;;;;;;;;;17.00;16.00;;;;;25.52;41.63;100906.83;110250;1265;18736;-54
2022/06/23 11:05:05;;;;;;;;;14.00;13.50;;;;;25.51;41.58;100903.70;110142;1264;18932;-54
2022/06/23 11:07:36;;;;;;;;;14.00;14.00;;;;;25.46;41.67;100907.33;110213;1265;18853;-50
2022/06/23 11:10:03;;;;;;;;;16.00;16.00;;;;;25.44;42.18;100898.08;110056;1265;18801;-52